Time;durP1;ratioP1;P1;durP2;ratioP2;P2;SDS_P1;SDS_P2;PMS_P1;PMS_P2;Temp;Humidity;BMP_temperature;BMP_pressure;BME280_temperature;BME280_humidity;BME280_pressure;Samples;Min_cycle;Max_cycle;Signal;HPM_P1;HPM_P2
2023/09/06 07:01:31;;;;;;;0.10;0.10;;;29.50;99.90;35.20;101801.00;;;;6181944;22;1451001;-71
2023/09/06 07:04:09;;;;;;;0.10;0.10;;;30.00;99.90;35.50;101790.00;;;;6276484;22;20242;-71
2023/09/06 07:06:47;;;;;;;0.13;0.13;;;30.20;99.90;35.70;101787.00;;;;6252406;22;20171;-71
2023/09/06 07:09:19;;;;;;;0.10;0.10;;;30.80;99.90;36.20;101756.00;;;;6276011;22;20489;-71
2023/09/06 07:11:51;;;;;;;0.10;0.10;;;30.90;99.90;36.80;101768.00;;;;6278145;22;20153;-71
2023/09/06 07:14:22;;;;;;;0.10;0.10;;;31.40;99.90;37.10;101746.00;;;;6251580;22;20361;-71
2023/09/06 07:16:48;;;;;;;0.10;0.10;;;31.70;99.90;37.00;101767.00;;;;6276338;22;20194;-70
2023/09/06 07:19:14;;;;;;;0.10;0.10;;;31.90;99.90;37.10;101769.00;;;;6250932;22;20157;-70
2023/09/06 07:21:40;;;;;;;0.10;0.10;;;31.90;99.90;36.70;101786.00;;;;6251110;22;20192;-70
2023/09/06 07:24:13;;;;;;;0.10;0.10;;;32.10;99.90;34.70;101825.00;;;;6250930;22;20157;-70
2023/09/06 07:26:39;;;;;;;0.15;0.15;;;31.30;99.90;35.10;101827.00;;;;6276398;22;20145;-70
2023/09/06 07:29:05;;;;;;;0.30;0.30;;;30.60;99.90;35.50;101826.00;;;;6275561;22;20141;-70
2023/09/06 07:31:41;;;;;;;0.10;0.10;;;30.70;99.90;35.00;101838.00;;;;6251053;22;20167;-70
2023/09/06 07:34:10;;;;;;;0.20;0.20;;;30.10;99.90;34.90;101839.00;;;;6276061;22;20259;-71
2023/09/06 07:36:50;;;;;;;0.20;0.20;;;30.20;99.90;34.80;101854.00;;;;6275808;22;20145;-71
2023/09/06 07:39:24;;;;;;;0.10;0.10;;;30.40;99.90;35.70;101838.00;;;;6276986;22;20480;-70
2023/09/06 07:41:56;;;;;;;0.75;0.57;;;30.70;99.90;35.50;101854.00;;;;6276089;22;20406;-71
2023/09/06 07:44:29;;;;;;;0.30;0.30;;;30.80;99.90;36.30;101833.00;;;;6277773;22;20141;-70
2023/09/06 07:47:03;;;;;;;0.10;0.10;;;31.20;99.90;36.30;101811.00;;;;6276455;22;20164;-71
2023/09/06 07:49:31;;;;;;;0.10;0.10;;;31.50;99.90;33.20;101901.00;;;;6276334;22;20137;-70
2023/09/06 07:51:57;;;;;;;0.35;0.35;;;30.00;99.90;34.10;101884.00;;;;6250222;22;20172;-70
2023/09/06 07:54:34;;;;;;;0.65;0.65;;;29.80;99.90;36.40;101857.00;;;;6250498;22;20163;-69
2023/09/06 07:57:00;;;;;;;0.15;0.15;;;30.80;99.90;32.10;101916.00;;;;6276318;22;20168;-69
2023/09/06 07:59:32;;;;;;;0.20;0.20;;;29.90;99.90;34.60;101877.00;;;;6250316;22;20180;-69
2023/09/06 08:02:00;;;;;;;0.35;0.32;;;30.10;99.90;33.90;101902.00;;;;6250431;22;20199;-69
2023/09/06 08:04:26;;;;;;;0.35;0.35;;;29.60;99.90;34.60;101888.00;;;;6276082;22;20195;-70
2023/09/06 08:06:58;;;;;;;0.30;0.30;;;29.90;99.90;34.10;101904.00;;;;6250596;22;20153;-69
2023/09/06 08:09:27;;;;;;;0.57;0.57;;;29.90;99.90;31.70;101941.00;;;;6251571;22;20167;-69
2023/09/06 08:12:05;;;;;;;0.10;0.10;;;29.30;99.90;34.30;101905.00;;;;6274850;22;20177;-69
2023/09/06 08:14:47;;;;;;;0.30;0.30;;;29.60;99.90;34.50;101893.00;;;;6275981;22;20141;-70
2023/09/06 08:17:38;;;;;;;0.28;0.28;;;30.00;99.90;34.90;101881.00;;;;6275929;22;20573;-69
2023/09/06 08:20:14;;;;;;;0.10;0.10;;;30.40;99.90;34.70;101896.00;;;;6249051;22;20161;-66
2023/09/06 08:22:55;;;;;;;0.20;0.20;;;30.60;99.90;34.20;101879.00;;;;6276176;22;20153;-68
2023/09/06 08:25:40;;;;;;;0.20;0.20;;;30.20;99.90;33.80;101904.00;;;;6276324;22;20227;-68
2023/09/06 08:28:06;;;;;;;0.10;0.10;;;29.90;99.90;34.10;101898.00;;;;6249326;22;20185;-70
2023/09/06 08:30:41;;;;;;;0.10;0.10;;;29.80;99.90;36.10;101881.00;;;;6277195;22;20573;-71
2023/09/06 08:33:07;;;;;;;0.10;0.10;;;30.80;99.90;36.00;101877.00;;;;6246049;22;20234;-68
2023/09/06 08:35:36;;;;;;;1.13;1.13;;;30.90;99.90;34.80;101862.00;;;;6277612;22;20149;-69
2023/09/06 08:38:11;;;;;;;0.17;0.17;;;30.80;99.90;35.20;101863.00;;;;6248647;22;20184;-70
2023/09/06 08:41:01;;;;;;;0.10;0.10;;;30.80;99.90;35.30;101878.00;;;;6275927;22;20160;-68
2023/09/06 08:44:01;;;;;;;0.77;0.77;;;31.00;99.90;34.50;101898.00;;;;6259715;22;20161;-68
2023/09/06 08:47:00;;;;;;;0.10;0.10;;;30.50;99.90;35.50;101885.00;;;;6268203;22;20593;-68
2023/09/06 08:49:33;;;;;;;0.17;0.17;;;31.00;99.90;36.20;101871.00;;;;6252650;22;20267;-68
2023/09/06 08:52:03;;;;;;;0.10;0.10;;;31.40;99.90;34.20;101902.00;;;;6275625;22;20541;-69
2023/09/06 08:54:37;;;;;;;0.10;0.10;;;30.40;99.90;36.20;101870.00;;;;6249898;22;20589;-68
2023/09/06 08:57:22;;;;;;;0.93;0.82;;;31.00;99.90;33.20;101915.00;;;;6271740;22;20183;-69
2023/09/06 08:59:52;;;;;;;0.10;0.10;;;30.80;99.90;33.80;101934.00;;;;6250350;22;20221;-69
2023/09/06 09:02:42;;;;;;;0.10;0.10;;;30.10;99.90;35.00;101911.00;;;;6275260;22;20584;-69
2023/09/06 09:05:13;;;;;;;0.90;0.77;;;30.50;99.90;35.90;101883.00;;;;6275800;22;20167;-69
2023/09/06 09:07:39;;;;;;;1.15;1.15;;;31.00;99.90;35.40;101891.00;;;;6275632;22;20141;-69
2023/09/06 09:10:14;;;;;;;0.10;0.10;;;31.40;99.90;34.20;101917.00;;;;6274385;22;20168;-69
2023/09/06 09:12:41;;;;;;;0.20;0.20;;;30.30;99.90;33.90;101915.00;;;;6249916;22;20253;-68
2023/09/06 09:15:13;;;;;;;0.10;0.10;;;30.40;99.90;35.10;101902.00;;;;6275426;22;20159;-68
2023/09/06 09:17:42;;;;;;;0.57;0.57;;;30.40;99.90;35.70;101853.00;;;;6248543;22;20168;-69
2023/09/06 09:20:11;;;;;;;0.10;0.10;;;31.00;99.90;36.10;101883.00;;;;6276656;22;20144;-69
2023/09/06 09:22:38;;;;;;;0.20;0.20;;;31.10;99.90;36.50;101861.00;;;;6274427;22;20157;-69
2023/09/06 09:25:20;;;;;;;0.10;0.10;;;31.50;99.90;34.80;101894.00;;;;6275144;22;20145;-68
2023/09/06 09:27:56;;;;;;;0.10;0.10;;;30.90;99.90;34.90;101877.00;;;;6275252;22;20561;-69
2023/09/06 09:30:33;;;;;;;0.30;0.30;;;30.80;99.90;36.40;101880.00;;;;6275003;22;20137;-68
2023/09/06 09:33:09;;;;;;;2.30;1.30;;;31.30;99.90;36.10;101879.00;;;;6274667;22;20169;-69
2023/09/06 09:36:00;;;;;;;0.10;0.10;;;31.40;99.90;35.50;101877.00;;;;6277104;22;20286;-69
2023/09/06 09:39:08;;;;;;;0.20;0.20;;;31.80;99.90;36.80;101864.00;;;;6274924;22;20141;-69
2023/09/06 09:41:35;;;;;;;1.65;1.58;;;31.90;99.90;36.00;101877.00;;;;6163337;22;20162;-69
2023/09/06 09:44:21;;;;;;;0.10;0.10;;;32.00;99.90;34.80;101904.00;;;;6274897;22;20184;-69
2023/09/06 09:47:17;;;;;;;0.20;0.20;;;31.10;99.90;33.20;101930.00;;;;6275300;22;20153;-68
2023/09/06 09:50:05;;;;;;;0.63;0.63;;;30.20;99.90;35.00;101915.00;;;;6275641;22;20156;-69
2023/09/06 09:52:36;;;;;;;0.10;0.10;;;30.50;99.90;36.10;101858.00;;;;6275798;22;20177;-69
2023/09/06 09:55:06;;;;;;;0.50;0.50;;;31.30;99.90;34.50;101905.00;;;;6249882;22;20575;-69
2023/09/06 09:57:40;;;;;;;0.10;0.10;;;31.30;99.90;35.80;101870.00;;;;6275353;22;20160;-69
2023/09/06 10:00:43;;;;;;;0.63;0.63;;;31.50;99.90;36.00;101841.00;;;;6274875;22;20186;-69
2023/09/06 10:03:10;;;;;;;0.10;0.10;;;31.30;99.90;36.80;101859.00;;;;6274623;22;20492;-69
2023/09/06 10:05:43;;;;;;;0.10;0.10;;;32.00;99.90;37.80;101827.00;;;;6274800;22;20157;-69
2023/09/06 10:08:18;;;;;;;1.02;0.65;;;32.80;99.90;36.60;101823.00;;;;6274526;22;20159;-69
2023/09/06 10:10:56;;;;;;;0.20;0.20;;;32.70;99.90;37.20;101838.00;;;;6274836;22;20297;-69
2023/09/06 10:13:29;;;;;;;0.10;0.10;;;32.90;99.90;37.70;101830.00;;;;6248893;22;20659;-71
2023/09/06 10:16:00;;;;;;;0.20;0.20;;;32.90;99.90;38.80;101815.00;;;;6248781;22;20153;-71
2023/09/06 10:18:27;;;;;;;0.63;0.57;;;33.60;99.90;38.30;101810.00;;;;6274455;22;20522;-71
2023/09/06 10:33:55;;;;;;;0.38;0.38;;;30.40;99.90;33.90;101898.00;;;;5127145;27;1377014;-68
2023/09/06 10:36:56;;;;;;;0.40;0.40;;;30.20;99.90;36.60;101857.00;;;;5103877;27;20701;-69
2023/09/06 10:39:46;;;;;;;0.20;0.20;;;31.40;99.90;37.20;101840.00;;;;5112162;28;20195;-68
2023/09/06 10:42:18;;;;;;;0.10;0.10;;;32.20;99.90;37.10;101839.00;;;;5146997;27;20541;-69
2023/09/06 10:44:58;;;;;;;0.10;0.10;;;32.40;99.90;37.90;101820.00;;;;5130427;27;20726;-69
2023/09/06 10:47:49;;;;;;;0.73;0.55;;;32.90;99.90;37.50;101821.00;;;;5131881;27;20302;-69
2023/09/06 10:51:06;;;;;;;0.55;0.17;;;33.00;99.90;37.70;101818.00;;;;5115619;27;20212;-70
2023/09/06 10:57:19;;;;;;;0.17;0.17;;;32.90;99.90;37.50;101819.00;;;;5126453;28;20192;-70
2023/09/06 11:00:27;;;;;;;0.22;0.22;;;33.00;99.90;38.30;101801.00;;;;5132875;27;20167;-70
2023/09/06 11:03:25;;;;;;;0.10;0.10;;;33.30;99.90;37.40;101794.00;;;;5115778;27;20607;-70
2023/09/06 11:05:56;;;;;;;0.10;0.10;;;33.20;99.90;37.80;101812.00;;;;5115520;27;20179;-70
2023/09/06 11:08:29;;;;;;;0.10;0.10;;;33.20;99.90;38.60;101806.00;;;;5125866;27;20244;-70
2023/09/06 11:11:07;;;;;;;2.75;1.48;;;33.70;99.90;38.60;101808.00;;;;5113511;27;20191;-70
2023/09/06 11:13:56;;;;;;;0.40;0.40;;;33.80;99.90;39.20;101774.00;;;;5115918;27;20175;-70
2023/09/06 11:16:30;;;;;;;0.50;0.50;;;34.20;99.90;36.20;101829.00;;;;5133122;27;20179;-70
2023/09/06 11:19:00;;;;;;;0.28;0.28;;;33.70;99.90;36.50;101829.00;;;;5150639;27;20640;-70
2023/09/06 11:21:39;;;;;;;0.10;0.10;;;32.90;99.90;36.80;101826.00;;;;5151153;27;20198;-70
2023/09/06 11:24:08;;;;;;;0.70;0.70;;;32.70;99.90;36.60;101823.00;;;;5137153;27;20664;-70
2023/09/06 11:26:43;;;;;;;0.10;0.10;;;32.80;99.90;36.90;101836.00;;;;5150397;27;20217;-70
2023/09/06 11:29:20;;;;;;;0.10;0.10;;;32.70;99.90;37.80;101816.00;;;;5133327;27;20515;-70
2023/09/06 11:32:00;;;;;;;;;;;;;;;;;;;;;
2023/09/06 11:34:44;;;;;;;0.10;0.10;;;33.60;99.90;37.60;101790.00;;;;5150658;27;20549;-70
2023/09/06 11:37:19;;;;;;;0.17;0.17;;;33.60;99.90;37.50;101814.00;;;;5112001;28;20267;-69
2023/09/06 11:39:49;;;;;;;0.57;0.57;;;33.00;99.90;37.00;101820.00;;;;5110639;27;20189;-69
2023/09/06 11:43:13;;;;;;;0.10;0.10;;;32.80;99.90;37.90;101807.00;;;;5111276;28;20187;-69
2023/09/06 11:46:11;;;;;;;0.20;0.20;;;32.90;99.90;38.00;101782.00;;;;5009679;28;20622;-70
2023/09/06 11:48:48;;;;;;;0.10;0.10;;;33.20;99.90;37.70;101810.00;;;;5001580;28;20640;-70
2023/09/06 11:51:46;;;;;;;0.10;0.10;;;33.30;99.90;37.90;101807.00;;;;5016446;28;20193;-72
2023/09/06 11:54:15;;;;;;;0.40;0.40;;;33.20;99.90;36.80;101803.00;;;;5029631;27;20204;-72
2023/09/06 11:56:47;;;;;;;0.10;0.10;;;33.00;99.90;36.20;101827.00;;;;5107043;27;20207;-72
2023/09/06 11:59:14;;;;;;;0.10;0.10;;;32.50;99.90;36.20;101837.00;;;;5122637;27;20184;-71
2023/09/06 12:02:03;;;;;;;0.30;0.30;;;32.20;99.90;36.40;101832.00;;;;5125851;27;20183;-71
2023/09/06 12:04:40;;;;;;;0.45;0.45;;;31.90;99.90;35.40;101841.00;;;;5102263;27;20274;-71
2023/09/06 12:07:12;;;;;;;0.20;0.20;;;31.60;99.90;35.80;101836.00;;;;5117147;27;20701;-72
2023/09/06 12:09:38;;;;;;;0.30;0.30;;;31.70;99.90;34.70;101855.00;;;;5116379;27;20621;-71
2023/09/06 12:12:22;;;;;;;0.20;0.20;;;31.30;99.90;34.60;101853.00;;;;5097294;28;20200;-71
2023/09/06 12:14:49;;;;;;;3.20;0.38;;;31.20;99.90;36.00;101826.00;;;;5117090;27;20206;-72
2023/09/06 12:17:26;;;;;;;0.10;0.10;;;31.50;99.90;36.90;101825.00;;;;5115993;27;20172;-72
2023/09/06 12:20:10;;;;;;;0.30;0.30;;;31.90;99.90;37.40;101821.00;;;;5103873;27;20180;-70
2023/09/06 12:22:48;;;;;;;0.10;0.10;;;32.20;99.90;37.40;101797.00;;;;5108258;27;20163;-70
2023/09/06 12:25:23;;;;;;;0.20;0.20;;;32.40;99.90;36.90;101816.00;;;;5118452;27;20280;-72
2023/09/06 12:27:58;;;;;;;0.20;0.20;;;32.30;99.90;37.40;101804.00;;;;5101806;27;20243;-72
2023/09/06 12:30:35;;;;;;;2.13;1.27;;;32.50;99.90;36.60;101822.00;;;;5135931;27;20555;-72
2023/09/06 12:33:07;;;;;;;0.40;0.40;;;32.40;99.90;36.70;101804.00;;;;5100034;27;20222;-71
2023/09/06 12:35:40;;;;;;;0.10;0.10;;;32.20;99.90;36.50;101802.00;;;;5100951;27;20217;-71
2023/09/06 12:38:23;;;;;;;0.30;0.30;;;32.00;99.90;37.00;101793.00;;;;5097189;28;20180;-71
2023/09/06 12:40:52;;;;;;;0.10;0.10;;;32.30;99.90;36.80;101796.00;;;;5109722;27;20179;-71
2023/09/06 12:43:34;;;;;;;0.10;0.10;;;32.30;99.90;37.60;101792.00;;;;5096773;28;20275;-69
2023/09/06 12:46:06;;;;;;;0.10;0.10;;;32.60;99.90;37.20;101787.00;;;;5096793;27;20211;-72
2023/09/06 12:48:42;;;;;;;0.10;0.10;;;32.60;99.90;37.00;101774.00;;;;5116853;27;20545;-71
2023/09/06 12:51:16;;;;;;;0.38;0.38;;;32.50;99.90;36.50;101809.00;;;;5095737;27;20175;-69
2023/09/06 12:53:43;;;;;;;0.10;0.10;;;32.30;99.90;37.30;101778.00;;;;5099909;27;20179;-71
2023/09/06 12:56:11;;;;;;;0.35;0.35;;;32.40;99.90;37.80;101778.00;;;;5116133;27;20183;-71
2023/09/06 12:58:38;;;;;;;0.10;0.10;;;32.70;99.90;36.80;101767.00;;;;5116656;27;20211;-71
2023/09/06 13:01:08;;;;;;;0.10;0.10;;;32.60;99.90;37.20;101763.00;;;;5116544;27;20209;-70
2023/09/06 13:03:37;;;;;;;0.13;0.13;;;32.70;99.90;37.50;101763.00;;;;5099796;27;20270;-70
2023/09/06 13:06:13;;;;;;;0.47;0.32;;;32.70;99.90;37.20;101802.00;;;;5135130;27;20254;-71
2023/09/06 13:08:40;;;;;;;0.20;0.20;;;32.70;99.90;35.70;101767.00;;;;5124351;27;20292;-71
2023/09/06 13:11:16;;;;;;;0.30;0.30;;;32.40;99.90;35.80;101773.00;;;;5126328;27;20638;-71
2023/09/06 13:13:42;;;;;;;0.15;0.15;;;31.90;99.90;36.40;101771.00;;;;5098977;27;20648;-71
2023/09/06 13:16:32;;;;;;;0.10;0.10;;;31.80;99.90;37.10;101756.00;;;;5134832;27;20179;-71
2023/09/06 13:18:58;;;;;;;0.20;0.20;;;32.10;99.90;37.10;101748.00;;;;5091360;27;20271;-71
2023/09/06 13:21:52;;;;;;;0.10;0.10;;;32.20;99.90;36.30;101754.00;;;;5116704;27;20278;-71
2023/09/06 13:24:21;;;;;;;0.10;0.10;;;32.30;99.90;37.20;101749.00;;;;5099301;27;20262;-71
2023/09/06 13:26:50;;;;;;;0.10;0.10;;;32.30;99.90;36.90;101749.00;;;;5099634;27;20206;-71
2023/09/06 13:29:25;;;;;;;0.20;0.20;;;32.30;99.90;37.00;101748.00;;;;5112992;28;20673;-71
2023/09/06 13:31:53;;;;;;;0.30;0.20;;;32.40;99.90;36.80;101731.00;;;;5096461;27;20195;-71
2023/09/06 13:34:22;;;;;;;0.10;0.10;;;32.60;99.90;35.50;101768.00;;;;5113227;27;20551;-72
2023/09/06 13:36:54;;;;;;;0.20;0.20;;;31.90;99.90;36.10;101768.00;;;;5116615;27;20164;-71
2023/09/06 13:39:23;;;;;;;0.10;0.10;;;31.80;99.90;36.00;101768.00;;;;5115337;27;20200;-70
2023/09/06 13:42:09;;;;;;;2.30;2.17;;;31.70;99.90;35.10;101773.00;;;;5099697;27;20232;-71
2023/09/06 13:44:35;;;;;;;0.20;0.20;;;31.70;99.90;35.20;101777.00;;;;5091409;27;20187;-71
2023/09/06 13:47:07;;;;;;;0.10;0.10;;;31.40;99.90;36.40;101769.00;;;;5116257;27;20179;-71
2023/09/06 13:49:42;;;;;;;0.25;0.25;;;31.60;99.90;36.20;101758.00;;;;5134430;27;20207;-71
2023/09/06 13:52:08;;;;;;;0.20;0.20;;;31.80;99.90;36.40;101765.00;;;;5115648;27;20222;-71
2023/09/06 13:54:37;;;;;;;0.20;0.20;;;31.80;99.90;36.20;101758.00;;;;5097161;27;20262;-71
2023/09/06 13:57:29;;;;;;;0.30;0.30;;;31.90;99.90;35.90;101763.00;;;;5097747;28;20215;-71
2023/09/06 14:00:24;;;;;;;0.35;0.35;;;31.80;99.90;37.10;101749.00;;;;5090972;27;20230;-71
2023/09/06 14:03:04;;;;;;;0.30;0.30;;;32.10;99.90;35.90;101759.00;;;;5094656;27;20282;-71
2023/09/06 14:05:53;;;;;;;0.20;0.20;;;31.70;99.90;35.90;101757.00;;;;5115463;27;20318;-71
2023/09/06 14:08:25;;;;;;;0.10;0.10;;;31.60;99.90;36.30;101756.00;;;;5115666;27;20180;-71
2023/09/06 14:10:56;;;;;;;0.10;0.10;;;31.70;99.90;36.90;101759.00;;;;5115883;27;20195;-71
2023/09/06 14:13:26;;;;;;;0.17;0.17;;;32.00;99.90;37.10;101726.00;;;;5115931;27;20685;-72
2023/09/06 14:23:28;;;;;;;0.10;0.10;;;32.10;99.90;35.70;101759.00;;;;5123575;27;20228;-70
2023/09/06 14:26:05;;;;;;;0.10;0.10;;;31.80;99.90;36.80;101766.00;;;;5103539;28;20180;-71
2023/09/06 14:28:36;;;;;;;0.20;0.20;;;32.00;99.90;37.10;101752.00;;;;5109882;28;20172;-72
2023/09/06 14:31:10;;;;;;;0.10;0.10;;;32.20;99.90;36.70;101759.00;;;;5112110;28;20176;-72
2023/09/06 14:33:45;;;;;;;0.10;0.10;;;32.10;99.90;36.40;101749.00;;;;5133582;28;20286;-73
2023/09/06 14:36:21;;;;;;;0.30;0.30;;;31.90;99.90;36.10;101764.00;;;;5109521;28;20341;-73
2023/09/06 14:38:49;;;;;;;0.10;0.10;;;31.80;99.90;36.30;101768.00;;;;5124299;28;20183;-73
2023/09/06 14:41:50;;;;;;;0.10;0.10;;;31.80;99.90;35.60;101765.00;;;;5115471;28;20175;-73
2023/09/06 14:44:24;;;;;;;0.10;0.10;;;31.50;99.90;36.60;101757.00;;;;5088493;28;20214;-73
2023/09/06 14:46:59;;;;;;;0.10;0.10;;;31.80;99.90;36.20;101742.00;;;;5109628;28;20217;-73
2023/09/06 14:49:25;;;;;;;0.10;0.10;;;31.70;99.90;36.20;101757.00;;;;5108519;28;20239;-73
2023/09/06 14:52:15;;;;;;;0.10;0.10;;;31.60;99.90;36.60;101751.00;;;;5107911;28;20206;-72
2023/09/06 14:55:05;;;;;;;2.15;0.57;;;31.70;99.90;36.20;101751.00;;;;5132714;28;20187;-73
2023/09/06 14:57:46;;;;;;;0.22;0.22;;;31.80;99.90;36.30;101759.00;;;;5102301;28;20629;-72
2023/09/06 15:00:34;;;;;;;0.50;0.50;;;31.60;99.90;35.60;101771.00;;;;5114507;28;20176;-72
2023/09/06 15:03:15;;;;;;;0.20;0.20;;;31.80;99.90;35.40;101752.00;;;;5097332;27;20244;-72
2023/09/06 15:05:44;;;;;;;0.20;0.20;;;31.50;99.90;36.40;101751.00;;;;5115529;28;20183;-72
2023/09/06 15:08:24;;;;;;;0.10;0.10;;;31.60;99.90;36.50;101742.00;;;;5115459;28;20656;-73
2023/09/06 15:11:13;;;;;;;0.20;0.20;;;31.70;99.90;36.50;101742.00;;;;5132040;28;20183;-73
2023/09/06 15:14:09;;;;;;;0.20;0.20;;;31.90;99.90;34.30;101765.00;;;;5101260;28;20613;-73
2023/09/06 15:16:45;;;;;;;0.10;0.10;;;31.20;99.90;35.40;101759.00;;;;5033469;28;20276;-73
2023/09/06 15:19:52;;;;;;;0.47;0.30;;;31.30;99.90;34.00;101773.00;;;;5111667;27;20267;-72
2023/09/06 15:22:55;;;;;;;0.63;0.30;;;31.00;99.90;35.60;101755.00;;;;5098001;27;20633;-73
2023/09/06 15:25:44;;;;;;;0.30;0.30;;;31.20;99.90;35.50;101762.00;;;;5018350;28;20194;-73
2023/09/06 15:28:13;;;;;;;0.13;0.13;;;31.30;99.90;36.50;101740.00;;;;5064813;27;20230;-73
2023/09/06 15:30:49;;;;;;;0.25;0.25;;;31.60;99.90;35.80;101744.00;;;;5103555;27;20535;-72
2023/09/06 15:33:27;;;;;;;0.10;0.10;;;31.70;99.90;35.80;101748.00;;;;5118603;27;20207;-73
2023/09/06 15:35:54;;;;;;;0.10;0.10;;;31.60;99.90;35.80;101745.00;;;;5116635;27;20240;-72
2023/09/06 15:38:39;;;;;;;0.10;0.10;;;31.40;99.90;36.70;101745.00;;;;5117854;27;20202;-73
2023/09/06 15:41:20;;;;;;;0.10;0.10;;;31.60;99.90;35.90;101743.00;;;;5110921;27;20306;-73
2023/09/06 15:44:16;;;;;;;0.10;0.10;;;31.80;99.90;36.80;101721.00;;;;5094345;27;20205;-72
2023/09/06 15:51:41;;;;;;;0.10;0.10;;;31.90;99.90;35.90;101752.00;;;;4948834;29;20308;-73
2023/09/06 15:54:28;;;;;;;0.10;0.10;;;31.70;99.90;35.80;101761.00;;;;4848069;29;20625;-72
2023/09/06 15:57:09;;;;;;;0.32;0.32;;;31.50;99.90;36.10;101756.00;;;;4850381;29;20188;-73
2023/09/06 15:59:56;;;;;;;0.20;0.20;;;31.40;99.90;35.80;101755.00;;;;4878539;29;20196;-72
2023/09/06 16:02:37;;;;;;;0.20;0.20;;;31.40;99.90;35.50;101739.00;;;;4879074;29;20200;-72
2023/09/06 16:05:15;;;;;;;0.10;0.10;;;31.10;99.90;35.70;101744.00;;;;4897329;29;20207;-72
2023/09/06 16:07:56;;;;;;;0.47;0.47;;;31.30;99.90;34.40;101739.00;;;;4919031;29;20194;-72
2023/09/06 16:10:38;;;;;;;0.10;0.10;;;31.10;99.90;35.70;101742.00;;;;4919491;29;20273;-73
2023/09/06 16:13:25;;;;;;;0.10;0.10;;;31.10;99.90;35.70;101729.00;;;;4901042;29;20207;-73
2023/09/06 16:16:23;;;;;;;0.10;0.10;;;31.20;99.90;36.20;101726.00;;;;4994034;28;20195;-73
2023/09/06 16:19:01;;;;;;;0.10;0.10;;;31.40;99.90;36.60;101710.00;;;;4977886;28;20203;-73
2023/09/06 16:21:42;;;;;;;0.40;0.40;;;31.70;99.90;34.40;101731.00;;;;4997287;28;20285;-72
2023/09/06 16:24:18;;;;;;;0.10;0.10;;;31.10;99.90;34.60;101738.00;;;;4995407;28;20187;-72
2023/09/06 16:26:47;;;;;;;0.30;0.30;;;30.90;99.90;34.30;101691.00;;;;5042194;27;20224;-73
2023/09/06 16:29:49;;;;;;;0.05;0.05;;;30.80;99.90;34.20;101752.00;;;;5100106;27;20264;-71
2023/09/06 16:32:42;;;;;;;0.50;0.50;;;30.60;99.90;34.30;101748.00;;;;5034361;28;20649;-71
2023/09/06 16:35:25;;;;;;;0.10;0.10;;;30.60;99.90;35.40;101719.00;;;;5106237;27;20216;-72
2023/09/06 16:38:06;;;;;;;0.15;0.15;;;30.80;99.90;34.90;101730.00;;;;5096429;28;20529;-71
2023/09/06 16:40:52;;;;;;;0.73;0.73;;;30.90;99.90;35.50;101733.00;;;;5133809;27;20260;-71
2023/09/06 16:43:39;;;;;;;0.43;0.43;;;30.90;99.90;34.80;101715.00;;;;5095785;28;20275;-72
2023/09/06 16:46:23;;;;;;;0.10;0.10;;;30.90;99.90;35.10;101737.00;;;;5094548;28;20195;-72
2023/09/06 16:49:16;;;;;;;0.10;0.10;;;30.80;99.90;35.50;101735.00;;;;5113078;27;20233;-72
2023/09/06 16:51:56;;;;;;;0.10;0.10;;;30.90;99.90;35.50;101738.00;;;;5135457;27;20201;-72
2023/09/06 16:54:55;;;;;;;0.50;0.50;;;31.00;99.90;35.70;101722.00;;;;5088790;27;20198;-72
2023/09/06 16:57:33;;;;;;;0.10;0.10;;;31.10;99.90;35.20;101727.00;;;;5133631;27;20183;-72
2023/09/06 16:59:59;;;;;;;0.10;0.10;;;30.80;99.90;35.20;101712.00;;;;5130712;27;20183;-72
2023/09/06 17:02:52;;;;;;;0.10;0.10;;;30.70;99.90;35.20;101720.00;;;;5105559;27;20196;-72
2023/09/06 17:05:28;;;;;;;0.10;0.10;;;30.70;99.90;35.70;101734.00;;;;5134938;27;20504;-72
2023/09/06 17:08:30;;;;;;;0.10;0.10;;;31.00;99.90;35.60;101735.00;;;;5117257;27;20190;-72
2023/09/06 17:11:01;;;;;;;2.30;0.82;;;30.90;99.90;35.20;101742.00;;;;5012181;28;20202;-75
2023/09/06 17:13:38;;;;;;;0.95;0.50;;;30.90;99.90;35.50;101749.00;;;;4995469;28;20214;-70
2023/09/06 17:16:37;;;;;;;0.30;0.30;;;30.70;99.90;35.40;101740.00;;;;5105021;27;20367;-70
2023/09/06 17:19:28;;;;;;;0.10;0.10;;;30.80;99.90;35.20;101750.00;;;;5098978;27;20228;-69
2023/09/06 17:22:13;;;;;;;0.15;0.15;;;30.60;99.90;35.10;101758.00;;;;5116642;27;20660;-69
2023/09/06 17:25:01;;;;;;;0.10;0.10;;;30.40;99.90;34.60;101757.00;;;;5092115;27;20260;-71
2023/09/06 17:27:55;;;;;;;0.22;0.22;;;30.30;99.90;34.30;101775.00;;;;5113933;27;20191;-71
2023/09/06 17:30:30;;;;;;;0.10;0.10;;;30.00;99.90;34.70;101772.00;;;;5111629;27;20215;-71
2023/09/06 17:33:18;;;;;;;0.28;0.28;;;30.00;99.90;34.20;101786.00;;;;5091744;27;20206;-71
2023/09/06 17:35:48;;;;;;;0.30;0.30;;;29.80;99.90;33.60;101789.00;;;;5097637;28;20199;-71
2023/09/06 17:38:19;;;;;;;0.57;0.30;;;29.60;99.90;34.10;101789.00;;;;5105352;27;20207;-71
2023/09/06 17:40:54;;;;;;;0.10;0.10;;;29.50;99.90;33.80;101792.00;;;;5114312;27;20183;-71
2023/09/06 17:43:25;;;;;;;1.02;0.90;;;29.40;99.90;33.90;101798.00;;;;5116542;27;20223;-71
2023/09/06 17:45:58;;;;;;;0.20;0.20;;;29.30;99.90;34.10;101797.00;;;;5128289;27;20642;-71
2023/09/06 17:48:34;;;;;;;0.10;0.10;;;29.50;99.90;34.10;101795.00;;;;5107616;27;20199;-71
2023/09/06 17:51:07;;;;;;;0.10;0.10;;;29.50;99.90;34.20;101769.00;;;;5109660;27;20190;-71
2023/09/06 17:53:52;;;;;;;0.10;0.10;;;29.40;99.90;34.10;101807.00;;;;5103502;27;20196;-71
2023/09/06 17:56:36;;;;;;;0.10;0.10;;;29.30;99.90;34.30;101795.00;;;;5099335;27;20190;-71
2023/09/06 17:59:23;;;;;;;0.13;0.13;;;29.30;99.90;34.40;101803.00;;;;5109271;27;20182;-71
2023/09/06 18:02:21;;;;;;;0.10;0.10;;;29.30;99.90;33.40;101813.00;;;;5115921;27;20179;-71
2023/09/06 18:05:19;;;;;;;0.10;0.10;;;29.10;99.90;33.00;101823.00;;;;5079403;27;20606;-73
2023/09/06 18:07:54;;;;;;;0.20;0.20;;;28.80;99.90;33.20;101830.00;;;;5098642;27;20231;-71
2023/09/06 18:10:40;;;;;;;0.10;0.10;;;28.60;99.90;33.60;101821.00;;;;5104767;27;20190;-71
2023/09/06 18:13:10;;;;;;;0.20;0.20;;;28.70;99.90;33.50;101829.00;;;;5108393;28;20208;-72
2023/09/06 18:15:45;;;;;;;0.10;0.10;;;28.70;99.90;33.20;101818.00;;;;5109302;27;20679;-71
2023/09/06 18:19:07;;;;;;;0.20;0.20;;;28.60;99.90;33.50;101822.00;;;;5113040;27;20267;-71
2023/09/06 18:21:57;;;;;;;0.10;0.10;;;28.50;99.90;33.40;101845.00;;;;5078124;28;20191;-71
2023/09/06 18:24:34;;;;;;;0.10;0.10;;;28.60;99.90;33.40;101847.00;;;;5104478;28;20348;-71
2023/09/06 18:28:08;;;;;;;0.10;0.10;;;28.50;99.90;33.50;101843.00;;;;5088040;27;20191;-71
2023/09/06 18:30:24;;;;;;;0.17;0.17;;;28.60;99.90;33.20;101851.00;;;;5090016;28;20196;-71
2023/09/06 18:33:22;;;;;;;0.45;0.45;;;28.50;99.90;33.00;101863.00;;;;5125002;28;20199;-71
2023/09/06 18:36:11;;;;;;;0.20;0.20;;;28.30;99.90;33.00;101851.00;;;;5105802;28;20195;-71
2023/09/06 18:38:46;;;;;;;1.20;1.10;;;28.10;99.90;32.60;101870.00;;;;5105209;28;20204;-74
2023/09/06 18:41:17;;;;;;;0.20;0.20;;;27.90;99.90;33.00;101855.00;;;;5106902;28;20180;-72
2023/09/06 18:43:44;;;;;;;0.20;0.20;;;28.00;99.90;32.60;101870.00;;;;5107860;28;20262;-71
2023/09/06 18:46:25;;;;;;;0.20;0.20;;;27.90;99.90;32.40;101872.00;;;;5123863;28;20191;-72
2023/09/06 18:48:51;;;;;;;0.17;0.17;;;27.60;99.90;32.40;101871.00;;;;5107605;28;20179;-72
2023/09/06 18:51:29;;;;;;;0.20;0.20;;;27.60;99.90;32.50;101876.00;;;;5115152;28;20199;-72
2023/09/06 18:54:09;;;;;;;0.10;0.10;;;27.60;99.90;32.60;101877.00;;;;5097131;28;20262;-71
2023/09/06 18:56:54;;;;;;;0.20;0.20;;;27.70;99.90;32.20;101891.00;;;;5096970;27;20214;-71
2023/09/06 18:59:21;;;;;;;0.20;0.20;;;27.50;99.90;31.70;101862.00;;;;5091217;27;20187;-72
2023/09/06 19:01:55;;;;;;;0.20;0.20;;;27.10;99.90;31.00;101896.00;;;;5122242;27;20277;-72
2023/09/06 19:04:51;;;;;;;0.20;0.20;;;26.80;99.90;31.10;101907.00;;;;5119748;27;20181;-72
2023/09/06 19:07:25;;;;;;;0.20;0.20;;;26.60;99.90;30.90;101881.00;;;;5110733;27;20218;-72